Time,TemperatureF,DewpointF,PressureIn,WindDirection,WindDirectionDegrees,WindSpeedMPH,WindSpeedGustMPH,Humidity,HourlyPrecipIn,Conditions,Clouds,dailyrainin,SoftwareType,DateUTC
2013-02-19 00:00:00,20.6,8.9,30.12,WNW,298,0.0,0.0,60,0.00,OVC,OVC,0.00,WeatherDisplay:10.37,2013-02-19 05:00:00,
2013-02-19 00:04:00,20.5,9.2,30.12,WNW,298,0.0,0.0,61,0.00,OVC,OVC,0.00,WeatherDisplay:10.37,2013-02-19 05:04:00,
2013-02-19 00:08:00,20.3,9.7,30.12,WNW,298,0.0,0.0,63,0.00,OVC,OVC,0.00,WeatherDisplay:10.37,2013-02-19 05:08:00,
2013-02-19 00:13:00,20.1,9.5,30.12,WNW,298,0.0,0.0,63,0.00,OVC,OVC,0.00,WeatherDisplay:10.37,2013-02-19 05:13:00,
2013-02-19 00:19:00,20.0,9.4,30.12,WNW,298,0.0,0.0,63,0.00,OVC,OVC,0.00,WeatherDisplay:10.37,2013-02-19 05:19:00,
2013-02-19 00:24:00,20.0,9.4,30.12,WNW,298,0.0,0.0,63,0.00,OVC,OVC,0.00,WeatherDisplay:10.37,2013-02-19 05:24:00,
2013-02-19 00:29:00,19.9,10.7,30.12,WNW,298,0.0,0.0,67,0.00,OVC,OVC,0.00,WeatherDisplay:10.37,2013-02-19 05:29:00,
2013-02-19 00:35:00,19.7,10.5,30.12,WNW,298,1.2,0.0,67,0.00,OVC,OVC,0.00,WeatherDisplay:10.37,2013-02-19 05:35:00,
2013-02-19 00:40:00,19.6,10.7,30.12,WNW,298,0.0,0.0,68,0.00,OVC,OVC,0.00,WeatherDisplay:10.37,2013-02-19 05:40:00,
2013-02-19 00:45:00,19.5,10.6,30.12,WNW,298,0.0,0.0,68,0.00,OVC,OVC,0.00,WeatherDisplay:10.37,2013-02-19 05:45:00,
2013-02-19 00:50:00,19.4,10.6,30.12,WNW,298,0.0,0.0,68,0.00,OVC,OVC,0.00,WeatherDisplay:10.37,2013-02-19 05:50:00,
2013-02-19 00:55:00,19.4,10.9,30.12,WNW,298,0.0,0.0,69,0.00,OVC,OVC,0.00,WeatherDisplay:10.37,2013-02-19 05:55:00,
2013-02-19 01:01:00,19.4,11.5,30.12,WNW,298,0.0,0.0,71,0.00,OVC,OVC,0.00,WeatherDisplay:10.37,2013-02-19 06:01:00,
2013-02-19 01:06:00,19.4,11.8,30.12,WNW,298,0.0,0.0,72,0.00,OVC,OVC,0.00,WeatherDisplay:10.37,2013-02-19 06:06:00,
2013-02-19 01:11:00,19.4,12.2,30.13,WNW,298,0.0,0.0,73,0.00,OVC,OVC,0.00,WeatherDisplay:10.37,2013-02-19 06:11:00,
2013-02-19 01:17:00,19.4,12.2,30.13,WNW,298,1.2,0.0,73,0.00,OVC,OVC,0.00,WeatherDisplay:10.37,2013-02-19 06:17:00,
2013-02-19 01:22:00,19.5,12.3,30.13,WNW,298,1.2,1.2,73,0.00,OVC,OVC,0.00,WeatherDisplay:10.37,2013-02-19 06:22:00,
2013-02-19 01:27:00,19.7,12.8,30.13,WNW,298,1.2,0.0,74,0.00,OVC,OVC,0.00,WeatherDisplay:10.37,2013-02-19 06:27:00,
2013-02-19 01:32:00,19.9,12.9,30.11,WNW,298,0.0,0.0,74,0.00,OVC,OVC,0.00,WeatherDisplay:10.37,2013-02-19 06:32:00,
2013-02-19 01:37:00,20.0,13.0,30.12,WNW,298,0.0,0.0,74,0.00,OVC,OVC,0.00,WeatherDisplay:10.37,2013-02-19 06:37:00,
2013-02-19 01:43:00,20.2,13.5,30.12,WNW,298,1.2,0.0,75,0.00,OVC,OVC,0.00,WeatherDisplay:10.37,2013-02-19 06:43:00,
2013-02-19 01:48:00,20.3,13.3,30.12,WNW,298,0.0,0.0,74,0.00,OVC,OVC,0.00,WeatherDisplay:10.37,2013-02-19 06:48:00,
2013-02-19 01:53:00,20.5,13.5,30.12,WNW,298,0.0,0.0,74,0.00,OVC,OVC,0.00,WeatherDisplay:10.37,2013-02-19 06:53:00,
2013-02-19 01:58:00,20.6,13.6,30.13,WNW,298,0.0,0.0,74,0.00,OVC,OVC,0.00,WeatherDisplay:10.37,2013-02-19 06:58:00,
2013-02-19 02:04:00,20.6,13.3,30.12,WNW,298,0.0,0.0,73,0.00,OVC,OVC,0.00,WeatherDisplay:10.37,2013-02-19 07:04:00,
2013-02-19 02:09:00,20.8,12.9,30.12,WNW,298,0.0,0.0,71,0.00,OVC,OVC,0.00,WeatherDisplay:10.37,2013-02-19 07:09:00,
2013-02-19 02:14:00,20.9,12.3,30.12,WNW,298,0.0,0.0,69,0.00,OVC,OVC,0.00,WeatherDisplay:10.37,2013-02-19 07:14:00,
2013-02-19 02:19:00,21.1,13.2,30.12,WNW,298,0.0,0.0,71,0.00,OVC,OVC,0.00,WeatherDisplay:10.37,2013-02-19 07:19:00,
2013-02-19 02:25:00,21.1,13.2,30.12,WNW,298,0.0,0.0,71,0.00,OVC,OVC,0.00,WeatherDisplay:10.37,2013-02-19 07:25:00,
2013-02-19 02:30:00,21.0,13.7,30.12,WNW,298,0.0,0.0,73,0.00,OVC,OVC,0.00,WeatherDisplay:10.37,2013-02-19 07:30:00,
2013-02-19 02:35:00,20.9,13.3,30.12,WNW,298,0.0,0.0,72,0.00,OVC,OVC,0.00,WeatherDisplay:10.37,2013-02-19 07:35:00,
2013-02-19 02:41:00,20.8,13.5,30.11,WNW,298,0.0,0.0,73,0.00,OVC,OVC,0.00,WeatherDisplay:10.37,2013-02-19 07:41:00,
2013-02-19 02:46:00,20.6,13.3,30.11,WNW,298,0.0,0.0,73,0.00,OVC,OVC,0.00,WeatherDisplay:10.37,2013-02-19 07:46:00,
2013-02-19 02:51:00,20.4,13.1,30.11,WNW,298,0.0,0.0,73,0.00,OVC,OVC,0.00,WeatherDisplay:10.37,2013-02-19 07:51:00,
2013-02-19 02:56:00,20.2,13.5,30.11,WNW,298,0.0,0.0,75,0.00,OVC,OVC,0.00,WeatherDisplay:10.37,2013-02-19 07:56:00,
2013-02-19 03:02:00,20.1,12.8,30.10,WNW,298,0.0,0.0,73,0.00,OVC,OVC,0.00,WeatherDisplay:10.37,2013-02-19 08:02:00,
2013-02-19 03:07:00,19.9,12.3,30.11,WNW,298,0.0,0.0,72,0.00,OVC,OVC,0.00,WeatherDisplay:10.37,2013-02-19 08:07:00,
2013-02-19 03:12:00,19.6,12.3,30.10,WNW,298,0.0,0.0,73,0.00,OVC,OVC,0.00,WeatherDisplay:10.37,2013-02-19 08:12:00,
2013-02-19 03:17:00,19.4,12.5,30.10,WNW,298,0.0,0.0,74,0.00,OVC,OVC,0.00,WeatherDisplay:10.37,2013-02-19 08:17:00,
2013-02-19 03:23:00,19.2,12.3,30.10,WNW,298,0.0,0.0,74,0.00,OVC,OVC,0.00,WeatherDisplay:10.37,2013-02-19 08:23:00,
2013-02-19 03:28:00,19.1,12.5,30.10,WNW,298,0.0,0.0,75,0.00,OVC,OVC,0.00,WeatherDisplay:10.37,2013-02-19 08:28:00,
2013-02-19 03:33:00,19.0,12.7,30.09,WNW,298,0.0,0.0,76,0.00,OVC,OVC,0.00,WeatherDisplay:10.37,2013-02-19 08:33:00,
2013-02-19 03:38:00,19.0,13.0,30.09,WNW,298,0.0,0.0,77,0.00,OVC,OVC,0.00,WeatherDisplay:10.37,2013-02-19 08:38:00,
2013-02-19 03:44:00,19.0,12.4,30.08,WNW,298,0.0,0.0,75,0.00,OVC,OVC,0.00,WeatherDisplay:10.37,2013-02-19 08:44:00,
2013-02-19 03:49:00,18.9,12.0,30.08,WNW,298,0.0,0.0,74,0.00,OVC,OVC,0.00,WeatherDisplay:10.37,2013-02-19 08:49:00,
2013-02-19 03:54:00,18.9,12.6,30.08,WNW,298,0.0,0.0,76,0.00,OVC,OVC,0.00,WeatherDisplay:10.37,2013-02-19 08:54:00,
2013-02-19 03:59:00,19.0,13.6,30.09,WNW,298,0.0,0.0,79,0.00,OVC,OVC,0.00,WeatherDisplay:10.37,2013-02-19 08:59:00,
2013-02-19 04:04:00,19.0,13.6,30.09,WNW,298,0.0,0.0,79,0.00,OVC,OVC,0.00,WeatherDisplay:10.37,2013-02-19 09:04:00,
2013-02-19 04:10:00,19.1,13.9,30.09,WNW,298,0.0,0.0,80,0.00,OVC,OVC,0.00,WeatherDisplay:10.37,2013-02-19 09:10:00,
2013-02-19 04:15:00,19.4,14.2,30.09,WNW,298,0.0,0.0,80,0.00,OVC,OVC,0.00,WeatherDisplay:10.37,2013-02-19 09:15:00,
2013-02-19 04:20:00,19.6,14.4,30.08,WNW,298,0.0,0.0,80,0.00,OVC,OVC,0.00,WeatherDisplay:10.37,2013-02-19 09:20:00,
2013-02-19 04:26:00,19.9,14.7,30.09,WNW,298,0.0,0.0,80,0.00,OVC,OVC,0.00,WeatherDisplay:10.37,2013-02-19 09:26:00,
2013-02-19 04:31:00,20.1,15.2,30.09,WNW,298,0.0,0.0,81,0.00,OVC,OVC,0.00,WeatherDisplay:10.37,2013-02-19 09:31:00,
2013-02-19 04:36:00,20.2,15.0,30.09,WNW,298,0.0,0.0,80,0.00,OVC,OVC,0.00,WeatherDisplay:10.37,2013-02-19 09:36:00,
2013-02-19 04:41:00,20.3,14.8,30.09,WNW,298,0.0,0.0,79,0.00,OVC,OVC,0.00,WeatherDisplay:10.37,2013-02-19 09:41:00,
2013-02-19 04:46:00,20.2,14.7,30.09,WNW,298,0.0,0.0,79,0.00,OVC,OVC,0.00,WeatherDisplay:10.37,2013-02-19 09:46:00,
2013-02-19 04:52:00,20.2,14.7,30.09,WNW,298,0.0,0.0,79,0.00,OVC,OVC,0.00,WeatherDisplay:10.37,2013-02-19 09:52:00,
2013-02-19 04:57:00,20.1,14.6,30.10,WNW,298,0.0,0.0,79,0.00,OVC,OVC,0.00,WeatherDisplay:10.37,2013-02-19 09:57:00,
2013-02-19 05:02:00,20.0,13.9,30.09,WNW,298,0.0,0.0,77,0.00,OVC,OVC,0.00,WeatherDisplay:10.37,2013-02-19 10:02:00,
2013-02-19 05:07:00,20.0,13.9,30.10,WNW,298,0.0,0.0,77,0.00,OVC,OVC,0.00,WeatherDisplay:10.37,2013-02-19 10:07:00,
2013-02-19 05:13:00,20.0,14.5,30.10,WNW,298,0.0,0.0,79,0.00,OVC,OVC,0.00,WeatherDisplay:10.37,2013-02-19 10:13:00,
2013-02-19 05:18:00,20.1,14.3,30.09,WNW,298,0.0,0.0,78,0.00,OVC,OVC,0.00,WeatherDisplay:10.37,2013-02-19 10:18:00,
2013-02-19 05:23:00,20.1,14.6,30.09,WNW,298,0.0,0.0,79,0.00,OVC,OVC,0.00,WeatherDisplay:10.37,2013-02-19 10:23:00,
2013-02-19 05:29:00,20.1,14.9,30.10,WNW,298,0.0,0.0,80,0.00,OVC,OVC,0.00,WeatherDisplay:10.37,2013-02-19 10:29:00,
2013-02-19 05:34:00,20.1,14.9,30.09,WNW,298,0.0,0.0,80,0.00,OVC,OVC,0.00,WeatherDisplay:10.37,2013-02-19 10:34:00,
2013-02-19 05:39:00,20.0,14.8,30.09,WNW,298,0.0,0.0,80,0.00,OVC,OVC,0.00,WeatherDisplay:10.37,2013-02-19 10:39:00,
2013-02-19 05:44:00,19.9,14.7,30.09,WNW,298,0.0,0.0,80,0.00,OVC,OVC,0.00,WeatherDisplay:10.37,2013-02-19 10:44:00,
2013-02-19 05:50:00,19.8,14.9,30.09,WNW,298,0.0,0.0,81,0.00,OVC,OVC,0.00,WeatherDisplay:10.37,2013-02-19 10:50:00,
2013-02-19 05:55:00,19.8,15.2,30.09,WNW,298,0.0,0.0,82,0.00,OVC,OVC,0.00,WeatherDisplay:10.37,2013-02-19 10:55:00,
2013-02-19 06:00:00,19.7,15.1,30.09,WNW,298,0.0,0.0,82,0.00,OVC,OVC,0.00,WeatherDisplay:10.37,2013-02-19 11:00:00,
2013-02-19 06:05:00,19.6,15.0,30.09,WNW,298,0.0,0.0,82,0.00,OVC,OVC,0.00,WeatherDisplay:10.37,2013-02-19 11:05:00,
2013-02-19 06:11:00,19.5,14.9,30.09,WNW,298,0.0,0.0,82,0.00,OVC,OVC,0.00,WeatherDisplay:10.37,2013-02-19 11:11:00,
2013-02-19 06:16:00,19.3,15.0,30.09,WNW,298,0.0,0.0,83,0.00,OVC,OVC,0.00,WeatherDisplay:10.37,2013-02-19 11:16:00,
2013-02-19 06:21:00,19.1,14.8,30.08,WNW,298,0.0,0.0,83,0.00,OVC,OVC,0.00,WeatherDisplay:10.37,2013-02-19 11:21:00,
2013-02-19 06:27:00,19.0,14.4,30.08,WNW,298,0.0,0.0,82,0.00,OVC,OVC,0.00,WeatherDisplay:10.37,2013-02-19 11:27:00,
2013-02-19 06:32:00,18.9,14.3,30.08,WNW,298,0.0,0.0,82,0.00,OVC,OVC,0.00,WeatherDisplay:10.37,2013-02-19 11:32:00,
2013-02-19 06:37:00,18.8,14.5,30.08,WNW,298,0.0,0.0,83,0.00,OVC,OVC,0.00,WeatherDisplay:10.37,2013-02-19 11:37:00,
2013-02-19 06:42:00,18.7,14.4,30.07,WNW,298,0.0,0.0,83,0.00,OVC,OVC,0.00,WeatherDisplay:10.37,2013-02-19 11:42:00,
2013-02-19 06:47:00,18.6,14.6,30.07,WNW,298,0.0,0.0,84,0.00,OVC,OVC,0.00,WeatherDisplay:10.37,2013-02-19 11:47:00,
2013-02-19 06:53:00,18.5,14.5,30.08,WNW,298,0.0,0.0,84,0.00,OVC,OVC,0.00,WeatherDisplay:10.37,2013-02-19 11:53:00,
2013-02-19 06:58:00,18.4,14.4,30.08,WNW,298,0.0,0.0,84,0.00,OVC,OVC,0.00,WeatherDisplay:10.37,2013-02-19 11:58:00,
2013-02-19 07:03:00,18.3,14.0,30.07,WNW,298,0.0,0.0,83,0.00,OVC,OVC,0.00,WeatherDisplay:10.37,2013-02-19 12:03:00,
2013-02-19 07:08:00,18.3,14.3,30.07,WNW,298,0.0,0.0,84,0.00,OVC,OVC,0.00,WeatherDisplay:10.37,2013-02-19 12:08:00,
2013-02-19 07:13:00,18.3,14.3,30.07,WNW,298,0.0,0.0,84,0.00,OVC,OVC,0.00,WeatherDisplay:10.37,2013-02-19 12:13:00,
2013-02-19 07:19:00,18.3,14.3,30.07,WNW,298,0.0,0.0,84,0.00,OVC,OVC,0.00,WeatherDisplay:10.37,2013-02-19 12:19:00,
2013-02-19 07:24:00,18.4,14.1,30.06,WNW,298,0.0,0.0,83,0.00,OVC,OVC,0.00,WeatherDisplay:10.37,2013-02-19 12:24:00,
2013-02-19 07:29:00,18.5,14.5,30.06,WNW,298,0.0,0.0,84,0.00,OVC,OVC,0.00,WeatherDisplay:10.37,2013-02-19 12:29:00,
2013-02-19 07:35:00,18.6,14.8,30.06,WNW,298,0.0,0.0,85,0.00,OVC,OVC,0.00,WeatherDisplay:10.37,2013-02-19 12:35:00,
2013-02-19 07:40:00,18.8,15.0,30.05,WNW,298,0.0,0.0,85,0.00,OVC,OVC,0.00,WeatherDisplay:10.37,2013-02-19 12:40:00,
2013-02-19 07:45:00,18.9,15.1,30.05,WNW,298,0.0,0.0,85,0.00,OVC,OVC,0.00,WeatherDisplay:10.37,2013-02-19 12:45:00,
2013-02-19 07:51:00,19.1,15.1,30.05,WNW,298,0.0,0.0,84,0.00,OVC,OVC,0.00,WeatherDisplay:10.37,2013-02-19 12:51:00,
2013-02-19 07:56:00,19.4,15.4,30.05,WNW,298,0.0,0.0,84,0.00,OVC,OVC,0.00,WeatherDisplay:10.37,2013-02-19 12:56:00,
2013-02-19 08:01:00,19.7,15.4,30.05,WNW,298,0.0,0.0,83,0.00,OVC,OVC,0.00,WeatherDisplay:10.37,2013-02-19 13:01:00,
2013-02-19 08:06:00,20.0,15.4,30.05,WNW,298,0.0,0.0,82,0.00,OVC,OVC,0.00,WeatherDisplay:10.37,2013-02-19 13:06:00,
2013-02-19 08:12:00,20.4,15.8,30.05,WNW,298,0.0,0.0,82,0.00,OVC,OVC,0.00,WeatherDisplay:10.37,2013-02-19 13:12:00,
2013-02-19 08:17:00,20.9,16.5,30.05,WNW,298,0.0,0.0,83,0.00,OVC,OVC,0.00,WeatherDisplay:10.37,2013-02-19 13:17:00,
2013-02-19 08:22:00,21.6,17.0,30.05,WNW,298,0.0,0.0,82,0.00,OVC,OVC,0.00,WeatherDisplay:10.37,2013-02-19 13:22:00,
2013-02-19 08:27:00,22.4,17.5,30.05,WNW,298,0.0,0.0,81,0.00,OVC,OVC,0.00,WeatherDisplay:10.37,2013-02-19 13:27:00,
2013-02-19 08:32:00,23.2,18.2,30.05,WNW,298,0.0,0.0,81,0.00,OVC,OVC,0.00,WeatherDisplay:10.37,2013-02-19 13:32:00,
2013-02-19 08:38:00,24.1,19.1,30.05,WNW,298,0.0,0.0,81,0.00,OVC,OVC,0.00,WeatherDisplay:10.37,2013-02-19 13:38:00,
2013-02-19 08:43:00,25.1,20.1,30.05,WNW,298,0.0,0.0,81,0.00,OVC,OVC,0.00,WeatherDisplay:10.37,2013-02-19 13:43:00,
2013-02-19 08:48:00,26.3,21.3,30.05,WNW,298,1.2,0.0,81,0.00,OVC,OVC,0.00,WeatherDisplay:10.37,2013-02-19 13:48:00,
2013-02-19 08:53:00,27.8,22.7,30.04,WNW,300,0.0,0.0,81,0.00,OVC,OVC,0.00,WeatherDisplay:10.37,2013-02-19 13:53:00,
2013-02-19 08:59:00,29.6,23.3,30.04,WNW,300,0.0,0.0,77,0.00,OVC,OVC,0.00,WeatherDisplay:10.37,2013-02-19 13:59:00,
2013-02-19 09:04:00,31.1,24.4,30.04,WNW,300,1.2,0.0,76,0.00,OVC,OVC,0.00,WeatherDisplay:10.37,2013-02-19 14:04:00,
2013-02-19 09:09:00,32.8,25.7,30.04,SSW,195,1.2,1.2,75,0.00,OVC,OVC,0.00,WeatherDisplay:10.37,2013-02-19 14:09:00,
2013-02-19 09:14:00,34.1,26.7,30.04,NNW,327,1.2,1.2,74,0.00,OVC,OVC,0.00,WeatherDisplay:10.37,2013-02-19 14:14:00,
2013-02-19 09:20:00,35.0,27.2,30.03,SW,226,2.3,2.3,73,0.00,OVC,OVC,0.00,WeatherDisplay:10.37,2013-02-19 14:20:00,
2013-02-19 09:25:00,35.9,27.7,30.04,WNW,288,2.3,2.3,72,0.00,OVC,OVC,0.00,WeatherDisplay:10.37,2013-02-19 14:25:00,
2013-02-19 09:30:00,36.6,28.1,30.03,WNW,295,3.5,3.5,71,0.00,OVC,OVC,0.00,WeatherDisplay:10.37,2013-02-19 14:30:00,
2013-02-19 09:36:00,37.5,28.6,30.03,West,269,1.2,1.2,70,0.00,OVC,OVC,0.00,WeatherDisplay:10.37,2013-02-19 14:36:00,
2013-02-19 09:41:00,38.3,28.7,30.03,SW,229,3.5,3.5,68,0.00,OVC,OVC,0.00,WeatherDisplay:10.37,2013-02-19 14:41:00,
2013-02-19 09:46:00,38.9,29.2,30.03,SSW,193,1.2,0.0,68,0.00,OVC,OVC,0.00,WeatherDisplay:10.37,2013-02-19 14:46:00,
2013-02-19 09:51:00,39.5,29.1,30.02,South,187,2.3,2.3,66,0.00,OVC,OVC,0.00,WeatherDisplay:10.37,2013-02-19 14:51:00,
2013-02-19 09:56:00,40.0,30.3,30.02,SSW,198,3.5,3.5,68,0.00,OVC,OVC,0.00,WeatherDisplay:10.37,2013-02-19 14:56:00,
2013-02-19 10:01:00,40.6,30.9,30.02,West,263,0.0,0.1,68,0.00,OVC,OVC,0.00,WeatherDisplay:10.37,2013-02-19 15:01:00,
2013-02-19 10:07:00,41.4,30.9,30.02,NNE,26,3.5,3.5,66,0.00,OVC,OVC,0.00,WeatherDisplay:10.37,2013-02-19 15:07:00,
2013-02-19 10:12:00,41.9,31.4,30.01,SW,215,3.5,3.5,66,0.00,OVC,OVC,0.00,WeatherDisplay:10.37,2013-02-19 15:12:00,
2013-02-19 10:17:00,42.4,32.2,30.01,NE,37,5.0,5.0,67,0.00,OVC,OVC,0.00,WeatherDisplay:10.37,2013-02-19 15:17:00,
2013-02-19 10:23:00,42.6,32.4,30.01,SSE,153,3.5,3.5,67,0.00,OVC,OVC,0.00,WeatherDisplay:10.37,2013-02-19 15:23:00,
2013-02-19 10:28:00,42.9,32.7,30.01,SW,221,3.5,3.5,67,0.00,OVC,OVC,0.00,WeatherDisplay:10.37,2013-02-19 15:28:00,
2013-02-19 10:33:00,43.2,33.0,30.01,ESE,122,3.5,3.5,67,0.00,OVC,OVC,0.00,WeatherDisplay:10.37,2013-02-19 15:33:00,
2013-02-19 10:38:00,43.4,33.2,30.00,South,170,3.5,3.5,67,0.00,OVC,OVC,0.00,WeatherDisplay:10.37,2013-02-19 15:38:00,
2013-02-19 10:44:00,43.5,32.9,30.00,West,277,4.0,4.0,66,0.00,OVC,OVC,0.00,WeatherDisplay:10.37,2013-02-19 15:44:00,
2013-02-19 10:49:00,43.8,33.2,30.00,SSE,168,1.2,0.0,66,0.00,OVC,OVC,0.00,WeatherDisplay:10.37,2013-02-19 15:49:00,
2013-02-19 10:54:00,44.2,33.6,30.00,SSW,207,2.3,2.3,66,0.00,OVC,OVC,0.00,WeatherDisplay:10.37,2013-02-19 15:54:00,
2013-02-19 10:59:00,44.6,33.6,30.00,SSW,199,3.5,3.5,65,0.00,OVC,OVC,0.00,WeatherDisplay:10.37,2013-02-19 15:59:00,
2013-02-19 11:05:00,44.9,33.5,30.00,WSW,246,3.5,3.5,64,0.00,OVC,OVC,0.00,WeatherDisplay:10.37,2013-02-19 16:05:00,
2013-02-19 11:10:00,44.9,33.8,30.00,SSW,209,4.6,4.6,65,0.00,OVC,OVC,0.00,WeatherDisplay:10.37,2013-02-19 16:10:00,
2013-02-19 11:15:00,45.0,34.3,29.99,SSW,195,1.2,1.2,66,0.00,OVC,OVC,0.00,WeatherDisplay:10.37,2013-02-19 16:15:00,
2013-02-19 11:21:00,45.2,34.1,30.00,SW,234,3.5,3.5,65,0.00,OVC,OVC,0.00,WeatherDisplay:10.37,2013-02-19 16:21:00,
2013-02-19 11:26:00,45.2,34.5,29.99,SW,230,4.6,4.6,66,0.00,OVC,OVC,0.00,WeatherDisplay:10.37,2013-02-19 16:26:00,
2013-02-19 11:31:00,45.3,34.6,29.98,South,184,4.6,4.6,66,0.00,OVC,OVC,0.00,WeatherDisplay:10.37,2013-02-19 16:31:00,
2013-02-19 11:36:00,45.9,35.2,29.98,South,176,3.0,3.0,66,0.00,OVC,OVC,0.00,WeatherDisplay:10.37,2013-02-19 16:36:00,
2013-02-19 11:41:00,46.2,35.1,29.97,West,275,5.8,0.0,65,0.00,OVC,OVC,0.00,WeatherDisplay:10.37,2013-02-19 16:41:00,
2013-02-19 11:46:00,46.3,35.2,29.97,SSW,193,8.1,8.1,65,0.00,OVC,OVC,0.00,WeatherDisplay:10.37,2013-02-19 16:46:00,
2013-02-19 11:52:00,46.4,35.3,29.96,SSW,201,10.4,10.4,65,0.00,OVC,OVC,0.00,WeatherDisplay:10.37,2013-02-19 16:52:00,
2013-02-19 11:57:00,46.2,35.1,29.96,SSW,211,5.8,5.8,65,0.00,OVC,OVC,0.00,WeatherDisplay:10.37,2013-02-19 16:57:00,
2013-02-19 12:02:00,46.1,35.0,29.95,NNE,22,3.5,3.5,65,0.00,OVC,OVC,0.00,WeatherDisplay:10.37,2013-02-19 17:02:00,
2013-02-19 12:07:00,46.1,35.0,29.96,WSW,247,4.6,4.6,65,0.00,OVC,OVC,0.00,WeatherDisplay:10.37,2013-02-19 17:07:00,
2013-02-19 12:13:00,46.3,34.8,29.95,South,188,3.5,3.5,64,0.00,OVC,OVC,0.00,WeatherDisplay:10.37,2013-02-19 17:13:00,
2013-02-19 12:18:00,46.4,34.9,29.95,SW,234,4.6,4.6,64,0.00,OVC,OVC,0.00,WeatherDisplay:10.37,2013-02-19 17:18:00,
2013-02-19 12:23:00,46.2,35.1,29.95,SSW,207,3.5,3.5,65,0.00,OVC,OVC,0.00,WeatherDisplay:10.37,2013-02-19 17:23:00,
2013-02-19 12:29:00,46.2,35.1,29.94,SSW,202,3.5,3.5,65,0.00,OVC,OVC,0.00,WeatherDisplay:10.37,2013-02-19 17:29:00,
2013-02-19 12:34:00,46.3,35.6,29.94,South,179,3.5,3.5,66,0.00,OVC,OVC,0.00,WeatherDisplay:10.37,2013-02-19 17:34:00,
2013-02-19 12:39:00,46.3,35.6,29.93,SW,227,4.6,4.6,66,0.00,OVC,OVC,0.00,WeatherDisplay:10.37,2013-02-19 17:39:00,
2013-02-19 12:44:00,46.2,35.5,29.93,South,180,4.6,4.8,66,0.00,OVC,OVC,0.00,WeatherDisplay:10.37,2013-02-19 17:44:00,
2013-02-19 12:50:00,46.4,35.3,29.92,WSW,250,2.3,2.3,65,0.00,OVC,OVC,0.00,WeatherDisplay:10.37,2013-02-19 17:50:00,
2013-02-19 12:55:00,46.5,35.4,29.92,South,187,4.6,4.6,65,0.00,OVC,OVC,0.00,WeatherDisplay:10.37,2013-02-19 17:55:00,
2013-02-19 13:00:00,46.4,35.3,29.91,WSW,240,4.6,4.6,65,0.00,OVC,OVC,0.00,WeatherDisplay:10.37,2013-02-19 18:00:00,
2013-02-19 13:06:00,46.0,35.3,29.91,SW,217,5.0,5.0,66,0.00,OVC,OVC,0.00,WeatherDisplay:10.37,2013-02-19 18:06:00,
2013-02-19 13:11:00,45.7,35.0,29.91,WSW,246,3.5,3.5,66,0.00,OVC,OVC,0.00,WeatherDisplay:10.37,2013-02-19 18:11:00,
2013-02-19 13:16:00,45.5,35.2,29.92,SW,236,4.6,4.6,67,0.00,OVC,OVC,0.00,WeatherDisplay:10.37,2013-02-19 18:16:00,
2013-02-19 13:21:00,45.3,35.0,29.91,WSW,239,3.5,3.5,67,0.00,OVC,OVC,0.00,WeatherDisplay:10.37,2013-02-19 18:21:00,
2013-02-19 13:27:00,45.1,35.2,29.91,WSW,258,6.9,6.9,68,0.00,OVC,OVC,0.00,WeatherDisplay:10.37,2013-02-19 18:27:00,
2013-02-19 13:32:00,44.8,35.2,29.91,North,5,3.5,3.5,69,0.00,OVC,OVC,0.00,WeatherDisplay:10.37,2013-02-19 18:32:00,
2013-02-19 13:37:00,44.7,35.1,29.90,South,176,6.9,6.9,69,0.00,OVC,OVC,0.00,WeatherDisplay:10.37,2013-02-19 18:37:00,
2013-02-19 13:42:00,44.8,35.2,29.90,SW,221,2.3,0.0,69,0.00,OVC,OVC,0.00,WeatherDisplay:10.37,2013-02-19 18:42:00,
2013-02-19 13:48:00,44.8,35.2,29.90,SSW,192,3.5,3.5,69,0.00,OVC,OVC,0.00,WeatherDisplay:10.37,2013-02-19 18:48:00,
2013-02-19 13:53:00,45.0,35.4,29.90,SSW,209,1.2,0.0,69,0.00,OVC,OVC,0.00,WeatherDisplay:10.37,2013-02-19 18:53:00,
2013-02-19 13:58:00,45.1,35.5,29.89,SW,231,3.5,3.5,69,0.00,OVC,OVC,0.00,WeatherDisplay:10.37,2013-02-19 18:58:00,
2013-02-19 14:03:00,45.4,35.5,29.88,SSW,206,4.6,4.6,68,0.00,OVC,OVC,0.00,WeatherDisplay:10.37,2013-02-19 19:03:00,
2013-02-19 14:09:00,45.7,35.7,29.88,SW,223,3.0,3.0,68,0.00,OVC,OVC,0.00,WeatherDisplay:10.37,2013-02-19 19:09:00,
2013-02-19 14:14:00,45.8,35.8,29.88,SSE,163,2.3,2.3,68,0.00,OVC,OVC,0.00,WeatherDisplay:10.37,2013-02-19 19:14:00,
2013-02-19 14:19:00,45.9,35.9,29.88,SW,236,3.5,3.5,68,0.00,OVC,OVC,0.00,WeatherDisplay:10.37,2013-02-19 19:19:00,
2013-02-19 14:24:00,46.0,36.0,29.87,SW,232,3.5,3.6,68,0.00,OVC,OVC,0.00,WeatherDisplay:10.37,2013-02-19 19:24:00,
2013-02-19 14:30:00,45.9,36.3,29.87,WSW,242,3.0,3.0,69,0.00,OVC,OVC,0.00,WeatherDisplay:10.37,2013-02-19 19:30:00,
2013-02-19 14:35:00,45.9,36.3,29.87,SW,224,4.6,4.6,69,0.00,OVC,OVC,0.00,WeatherDisplay:10.37,2013-02-19 19:35:00,
2013-02-19 14:40:00,45.9,36.7,29.86,SSW,203,2.3,2.3,70,0.00,OVC,OVC,0.00,WeatherDisplay:10.37,2013-02-19 19:40:00,
2013-02-19 14:45:00,45.9,37.0,29.86,South,187,3.5,0.0,71,0.00,OVC,OVC,0.00,WeatherDisplay:10.37,2013-02-19 19:45:00,
2013-02-19 14:51:00,45.7,36.8,29.86,SSW,198,2.3,2.3,71,0.00,OVC,OVC,0.00,WeatherDisplay:10.37,2013-02-19 19:51:00,
2013-02-19 14:56:00,45.6,37.1,29.86,SSW,207,4.6,4.6,72,0.00,OVC,OVC,0.00,WeatherDisplay:10.37,2013-02-19 19:56:00,
2013-02-19 15:01:00,45.4,37.2,29.85,South,177,3.5,3.5,73,0.00,OVC,OVC,0.00,WeatherDisplay:10.37,2013-02-19 20:01:00,
2013-02-19 15:06:00,45.3,37.5,29.85,SSE,165,3.5,3.5,74,0.00,OVC,OVC,0.00,WeatherDisplay:10.37,2013-02-19 20:06:00,
2013-02-19 15:12:00,45.4,37.6,29.85,SSE,164,2.0,2.0,74,0.00,OVC,OVC,0.00,WeatherDisplay:10.37,2013-02-19 20:12:00,
2013-02-19 15:17:00,45.3,37.8,29.84,South,171,3.5,3.5,75,0.00,OVC,OVC,0.00,WeatherDisplay:10.37,2013-02-19 20:17:00,
2013-02-19 15:22:00,45.3,38.2,29.83,SSW,195,2.3,2.3,76,0.00,OVC,OVC,0.00,WeatherDisplay:10.37,2013-02-19 20:22:00,
2013-02-19 15:27:00,45.1,38.3,29.83,West,271,3.5,3.5,77,0.00,OVC,OVC,0.00,WeatherDisplay:10.37,2013-02-19 20:27:00,
2013-02-19 15:33:00,45.0,38.6,29.83,SSW,197,3.5,3.5,78,0.00,OVC,OVC,0.00,WeatherDisplay:10.37,2013-02-19 20:33:00,
2013-02-19 15:38:00,44.9,38.5,29.82,SSW,192,3.5,3.5,78,0.00,OVC,OVC,0.00,WeatherDisplay:10.37,2013-02-19 20:38:00,
2013-02-19 15:43:00,44.8,39.0,29.82,SSW,202,3.5,3.5,80,0.00,OVC,OVC,0.00,WeatherDisplay:10.37,2013-02-19 20:43:00,
2013-02-19 15:48:00,44.9,39.1,29.82,SSW,199,5.8,5.8,80,0.00,OVC,OVC,0.00,WeatherDisplay:10.37,2013-02-19 20:48:00,
2013-02-19 15:54:00,45.0,39.2,29.81,SSW,202,3.5,3.5,80,0.00,OVC,OVC,0.00,WeatherDisplay:10.37,2013-02-19 20:54:00,
2013-02-19 15:59:00,44.9,39.1,29.81,SSW,202,3.5,3.5,80,0.00,OVC,OVC,0.00,WeatherDisplay:10.37,2013-02-19 20:59:00,
2013-02-19 16:04:00,44.7,39.5,29.81,South,178,3.5,3.5,82,0.00,OVC,OVC,0.00,WeatherDisplay:10.37,2013-02-19 21:04:00,
2013-02-19 16:10:00,44.5,39.7,29.81,West,274,0.0,0.0,83,0.00,OVC,OVC,0.00,WeatherDisplay:10.37,2013-02-19 21:10:00,
2013-02-19 16:15:00,44.2,39.7,29.81,South,175,4.0,4.0,84,0.00,OVC,OVC,0.00,WeatherDisplay:10.37,2013-02-19 21:15:00,
2013-02-19 16:20:00,44.1,40.2,29.81,SSW,192,6.9,6.9,86,0.00,OVC,OVC,0.00,WeatherDisplay:10.37,2013-02-19 21:20:00,
2013-02-19 16:25:00,44.1,40.5,29.80,ENE,71,4.0,4.0,87,0.00,OVC,OVC,0.00,WeatherDisplay:10.37,2013-02-19 21:25:00,
2013-02-19 16:31:00,44.0,40.7,29.80,South,191,1.2,1.2,88,0.00,OVC,OVC,0.00,WeatherDisplay:10.37,2013-02-19 21:31:00,
2013-02-19 16:36:00,43.8,40.8,29.80,SW,215,3.5,3.5,89,0.00,OVC,OVC,0.00,WeatherDisplay:10.37,2013-02-19 21:36:00,
2013-02-19 16:41:00,43.6,40.9,29.79,South,191,5.0,5.0,90,0.00,OVC,OVC,0.00,WeatherDisplay:10.37,2013-02-19 21:41:00,
2013-02-19 16:46:00,43.4,40.7,29.78,South,184,3.5,0.0,90,0.00,OVC,OVC,0.00,WeatherDisplay:10.37,2013-02-19 21:46:00,
2013-02-19 16:52:00,43.1,40.4,29.77,SSW,203,2.3,2.3,90,0.00,OVC,OVC,0.00,WeatherDisplay:10.37,2013-02-19 21:52:00,
2013-02-19 16:57:00,42.9,40.5,29.77,SSW,198,2.3,2.3,91,0.00,OVC,OVC,0.00,WeatherDisplay:10.37,2013-02-19 21:57:00,
2013-02-19 17:02:00,42.8,40.6,29.77,South,190,2.3,2.3,92,0.00,OVC,OVC,0.00,WeatherDisplay:10.37,2013-02-19 22:02:00,
2013-02-19 17:07:00,42.9,40.7,29.76,SSW,202,1.2,1.3,92,0.00,OVC,OVC,0.00,WeatherDisplay:10.37,2013-02-19 22:07:00,
2013-02-19 17:12:00,42.8,40.6,29.76,SSW,198,1.2,1.2,92,0.00,OVC,OVC,0.00,WeatherDisplay:10.37,2013-02-19 22:12:00,
2013-02-19 17:17:00,42.7,40.8,29.76,SE,143,3.5,3.5,93,0.00,OVC,OVC,0.00,WeatherDisplay:10.37,2013-02-19 22:17:00,
2013-02-19 17:23:00,42.8,41.2,29.76,South,181,3.5,3.5,94,0.00,OVC,OVC,0.00,WeatherDisplay:10.37,2013-02-19 22:23:00,
2013-02-19 17:28:00,42.8,41.2,29.75,South,180,1.2,0.0,94,0.00,OVC,OVC,0.00,WeatherDisplay:10.37,2013-02-19 22:28:00,
2013-02-19 17:33:00,42.7,41.1,29.75,South,180,1.2,1.2,94,0.00,OVC,OVC,0.00,WeatherDisplay:10.37,2013-02-19 22:33:00,
2013-02-19 17:39:00,42.5,40.6,29.74,South,178,2.3,2.3,93,0.00,OVC,OVC,0.00,WeatherDisplay:10.37,2013-02-19 22:39:00,
2013-02-19 17:44:00,42.2,40.6,29.74,South,175,1.2,0.0,94,0.00,OVC,OVC,0.00,WeatherDisplay:10.37,2013-02-19 22:44:00,
2013-02-19 17:49:00,41.8,39.9,29.73,SSE,159,0.0,0.0,93,0.00,OVC,OVC,0.00,WeatherDisplay:10.37,2013-02-19 22:49:00,
2013-02-19 17:54:00,41.5,39.9,29.72,SE,136,0.0,0.0,94,0.00,OVC,OVC,0.00,WeatherDisplay:10.37,2013-02-19 22:54:00,
2013-02-19 18:00:00,41.5,40.2,29.72,South,169,1.2,0.0,95,0.00,OVC,OVC,0.00,WeatherDisplay:10.37,2013-02-19 23:00:00,
2013-02-19 18:05:00,41.3,40.0,29.72,South,169,0.0,0.0,95,0.00,OVC,OVC,0.00,WeatherDisplay:10.37,2013-02-19 23:05:00,
2013-02-19 18:10:00,40.7,38.8,29.70,SSE,154,1.2,0.0,93,0.00,OVC,OVC,0.00,WeatherDisplay:10.37,2013-02-19 23:10:00,
2013-02-19 18:15:00,40.1,38.2,29.71,WNW,288,2.3,2.3,93,0.00,OVC,OVC,0.00,WeatherDisplay:10.37,2013-02-19 23:15:00,
2013-02-19 18:20:00,39.6,38.0,29.70,SW,229,1.2,1.2,94,0.00,OVC,OVC,0.00,WeatherDisplay:10.37,2013-02-19 23:20:00,
2013-02-19 18:26:00,39.3,37.7,29.70,SSE,153,0.0,0.0,94,0.00,OVC,OVC,0.00,WeatherDisplay:10.37,2013-02-19 23:26:00,
2013-02-19 18:31:00,38.9,37.3,29.70,SW,231,0.0,0.0,94,0.00,OVC,OVC,0.00,WeatherDisplay:10.37,2013-02-19 23:31:00,
2013-02-19 18:36:00,38.5,36.9,29.70,East,81,3.5,3.5,94,0.00,OVC,OVC,0.00,WeatherDisplay:10.37,2013-02-19 23:36:00,
2013-02-19 18:41:00,41.7,41.2,29.69,SSE,164,4.6,4.6,98,0.00,OVC,OVC,0.00,WeatherDisplay:10.37,2013-02-19 23:41:00,
2013-02-19 18:46:00,42.3,41.8,29.70,SE,144,2.3,2.3,98,0.00,OVC,OVC,0.00,WeatherDisplay:10.37,2013-02-19 23:46:00,
2013-02-19 18:52:00,42.2,41.7,29.70,SSW,196,1.2,1.2,98,0.00,OVC,OVC,0.00,WeatherDisplay:10.37,2013-02-19 23:52:00,
2013-02-19 18:57:00,42.1,41.6,29.70,WNW,291,1.2,1.2,98,0.00,OVC,OVC,0.00,WeatherDisplay:10.37,2013-02-19 23:57:00,
2013-02-19 19:02:00,41.5,40.4,29.69,WNW,292,0.0,0.0,96,0.00,OVC,OVC,0.00,WeatherDisplay:10.37,2013-02-20 00:02:00,
2013-02-19 19:07:00,41.2,40.1,29.69,WNW,292,0.0,0.0,96,0.00,OVC,OVC,0.00,WeatherDisplay:10.37,2013-02-20 00:07:00,
2013-02-19 19:13:00,40.8,39.7,29.69,ESE,123,2.3,2.3,96,0.00,OVC,OVC,0.00,WeatherDisplay:10.37,2013-02-20 00:13:00,
2013-02-19 19:18:00,40.9,40.1,29.68,SSW,192,3.5,3.5,97,0.00,OVC,OVC,0.00,WeatherDisplay:10.37,2013-02-20 00:18:00,
2013-02-19 19:23:00,42.3,41.8,29.68,SSW,192,3.0,3.0,98,0.00,OVC,OVC,0.00,WeatherDisplay:10.37,2013-02-20 00:23:00,
2013-02-19 19:28:00,43.0,42.5,29.68,SSW,192,3.5,0.0,98,0.00,OVC,OVC,0.00,WeatherDisplay:10.37,2013-02-20 00:28:00,
2013-02-19 19:33:00,43.2,42.7,29.67,WSW,248,2.3,2.3,98,0.00,OVC,OVC,0.00,WeatherDisplay:10.37,2013-02-20 00:33:00,
2013-02-19 19:38:00,43.3,42.8,29.67,South,173,3.5,3.5,98,0.00,OVC,OVC,0.00,WeatherDisplay:10.37,2013-02-20 00:38:00,
2013-02-19 19:44:00,43.2,42.7,29.66,South,173,1.2,0.0,98,0.00,OVC,OVC,0.00,WeatherDisplay:10.37,2013-02-20 00:44:00,
2013-02-19 19:49:00,42.8,42.0,29.65,South,172,2.3,2.3,97,0.00,OVC,OVC,0.00,WeatherDisplay:10.37,2013-02-20 00:49:00,
2013-02-19 19:54:00,42.5,41.7,29.65,SSW,203,3.5,3.5,97,0.00,OVC,OVC,0.00,WeatherDisplay:10.37,2013-02-20 00:54:00,
2013-02-19 19:59:00,42.7,42.2,29.64,South,175,1.2,1.8,98,0.00,OVC,OVC,0.00,WeatherDisplay:10.37,2013-02-20 00:59:00,
2013-02-19 20:05:00,42.5,41.7,29.63,South,170,2.3,2.3,97,0.00,OVC,OVC,0.00,WeatherDisplay:10.37,2013-02-20 01:05:00,
2013-02-19 20:10:00,42.4,41.6,29.62,East,90,1.0,1.0,97,0.00,OVC,OVC,0.00,WeatherDisplay:10.37,2013-02-20 01:10:00,
2013-02-19 20:15:00,42.3,41.5,29.62,South,175,3.5,3.5,97,0.00,OVC,OVC,0.00,WeatherDisplay:10.37,2013-02-20 01:15:00,
2013-02-19 20:21:00,42.3,41.8,29.61,ESE,115,0.0,0.0,98,0.00,OVC,OVC,0.00,WeatherDisplay:10.37,2013-02-20 01:21:00,
2013-02-19 20:26:00,42.3,41.5,29.60,SE,142,0.0,0.0,97,0.00,OVC,OVC,0.00,WeatherDisplay:10.37,2013-02-20 01:26:00,
2013-02-19 20:31:00,42.2,41.7,29.59,South,186,0.0,0.0,98,0.00,OVC,OVC,0.00,WeatherDisplay:10.37,2013-02-20 01:31:00,
2013-02-19 20:36:00,42.1,41.3,29.59,South,186,0.0,0.0,97,0.00,OVC,OVC,0.00,WeatherDisplay:10.37,2013-02-20 01:36:00,
2013-02-19 20:41:00,41.9,41.1,29.58,South,186,0.0,0.0,97,0.00,OVC,OVC,0.00,WeatherDisplay:10.37,2013-02-20 01:41:00,
2013-02-19 20:47:00,41.6,40.5,29.57,South,186,0.0,0.0,96,0.00,OVC,OVC,0.00,WeatherDisplay:10.37,2013-02-20 01:47:00,
2013-02-19 20:52:00,41.3,40.5,29.57,South,186,0.0,0.0,97,0.00,OVC,OVC,0.00,WeatherDisplay:10.37,2013-02-20 01:52:00,
2013-02-19 20:57:00,41.0,40.2,29.57,South,186,0.0,0.0,97,0.00,OVC,OVC,0.00,WeatherDisplay:10.37,2013-02-20 01:57:00,
2013-02-19 21:03:00,40.7,39.6,29.57,South,186,0.0,0.0,96,0.00,OVC,OVC,0.00,WeatherDisplay:10.37,2013-02-20 02:03:00,
2013-02-19 21:08:00,40.6,39.8,29.58,South,186,0.0,0.0,97,0.00,OVC,OVC,0.00,WeatherDisplay:10.37,2013-02-20 02:08:00,
2013-02-19 21:13:00,40.8,40.3,29.58,South,175,2.3,2.3,98,0.00,OVC,OVC,0.00,WeatherDisplay:10.37,2013-02-20 02:13:00,
2013-02-19 21:18:00,41.4,40.9,29.57,NNW,345,3.5,0.0,98,0.00,OVC,OVC,0.00,WeatherDisplay:10.37,2013-02-20 02:18:00,
2013-02-19 21:23:00,42.0,41.5,29.56,SSW,192,2.3,0.0,98,0.00,OVC,OVC,0.00,WeatherDisplay:10.37,2013-02-20 02:23:00,
2013-02-19 21:29:00,42.3,41.8,29.57,SSW,193,0.0,0.0,98,0.00,OVC,OVC,0.00,WeatherDisplay:10.37,2013-02-20 02:29:00,
2013-02-19 21:34:00,41.9,41.4,29.56,SSW,194,0.0,0.0,98,0.00,OVC,OVC,0.00,WeatherDisplay:10.37,2013-02-20 02:34:00,
2013-02-19 21:39:00,41.6,41.1,29.57,NW,313,0.0,0.0,98,0.00,OVC,OVC,0.00,WeatherDisplay:10.37,2013-02-20 02:39:00,
2013-02-19 21:44:00,41.4,40.9,29.57,South,182,0.0,0.0,98,0.00,OVC,OVC,0.00,WeatherDisplay:10.37,2013-02-20 02:44:00,
2013-02-19 21:49:00,41.5,41.0,29.57,South,182,0.0,0.0,98,0.00,OVC,OVC,0.00,WeatherDisplay:10.37,2013-02-20 02:49:00,
2013-02-19 21:55:00,41.3,40.8,29.58,South,182,0.0,0.0,98,0.00,OVC,OVC,0.00,WeatherDisplay:10.37,2013-02-20 02:55:00,
2013-02-19 22:00:00,41.4,40.9,29.57,SSW,198,0.0,0.0,98,0.00,OVC,OVC,0.00,WeatherDisplay:10.37,2013-02-20 03:00:00,
2013-02-19 22:05:00,41.3,40.8,29.56,SSE,164,0.0,0.0,98,0.00,OVC,OVC,0.00,WeatherDisplay:10.37,2013-02-20 03:05:00,
2013-02-19 22:10:00,41.6,41.1,29.56,NE,52,0.0,0.0,98,0.00,OVC,OVC,0.00,WeatherDisplay:10.37,2013-02-20 03:10:00,
2013-02-19 22:15:00,41.6,41.1,29.56,NE,52,0.0,0.0,98,0.00,OVC,OVC,0.00,WeatherDisplay:10.37,2013-02-20 03:15:00,
2013-02-19 22:21:00,41.4,40.9,29.55,NE,52,0.0,0.0,98,0.00,OVC,OVC,0.00,WeatherDisplay:10.37,2013-02-20 03:21:00,
2013-02-19 22:26:00,41.1,40.6,29.53,NE,52,0.0,0.0,98,0.03,RA,RA,0.03,WeatherDisplay:10.37,2013-02-20 03:26:00,
2013-02-19 22:31:00,40.8,40.0,29.54,NE,52,0.0,0.0,97,0.08,RA,RA,0.08,WeatherDisplay:10.37,2013-02-20 03:31:00,
2013-02-19 22:36:00,40.4,39.6,29.54,NE,52,0.0,0.0,97,0.08,RA,RA,0.08,WeatherDisplay:10.37,2013-02-20 03:36:00,
2013-02-19 22:41:00,40.1,39.3,29.53,NE,52,0.0,0.0,97,0.09,RA,RA,0.09,WeatherDisplay:10.37,2013-02-20 03:41:00,
2013-02-19 22:46:00,39.6,38.8,29.54,NE,52,0.0,0.0,97,0.09,RA,RA,0.09,WeatherDisplay:10.37,2013-02-20 03:46:00,
2013-02-19 22:52:00,39.5,38.7,29.54,NE,52,0.0,0.0,97,0.10,RA,RA,0.10,WeatherDisplay:10.37,2013-02-20 03:52:00,
2013-02-19 22:57:00,39.3,38.5,29.54,NE,52,0.0,0.0,97,0.10,RA,RA,0.10,WeatherDisplay:10.37,2013-02-20 03:57:00,
2013-02-19 23:02:00,39.0,38.2,29.55,NE,52,0.0,0.0,97,0.10,OVC,OVC,0.10,WeatherDisplay:10.37,2013-02-20 04:02:00,
2013-02-19 23:07:00,38.8,38.0,29.55,NE,52,0.0,0.0,97,0.10,OVC,OVC,0.10,WeatherDisplay:10.37,2013-02-20 04:07:00,
2013-02-19 23:12:00,38.8,38.3,29.55,NE,52,0.0,0.0,98,0.10,OVC,OVC,0.10,WeatherDisplay:10.37,2013-02-20 04:12:00,
2013-02-19 23:18:00,38.7,38.2,29.54,NE,52,0.0,0.0,98,0.11,RA,RA,0.11,WeatherDisplay:10.37,2013-02-20 04:18:00,
2013-02-19 23:23:00,38.5,37.7,29.54,NE,52,0.0,0.0,97,0.11,RA,RA,0.11,WeatherDisplay:10.37,2013-02-20 04:23:00,
2013-02-19 23:28:00,38.3,37.5,29.54,NE,52,0.0,0.0,97,0.06,OVC,OVC,0.11,WeatherDisplay:10.37,2013-02-20 04:28:00,
2013-02-19 23:34:00,38.7,38.2,29.54,ENE,74,0.0,0.0,98,0.03,OVC,OVC,0.11,WeatherDisplay:10.37,2013-02-20 04:34:00,
2013-02-19 23:39:00,38.6,38.1,29.54,NNW,338,2.3,2.3,98,0.02,OVC,OVC,0.11,WeatherDisplay:10.37,2013-02-20 04:39:00,
2013-02-19 23:44:00,38.4,37.9,29.54,WSW,252,0.0,0.0,98,0.02,OVC,OVC,0.11,WeatherDisplay:10.37,2013-02-20 04:44:00,
2013-02-19 23:49:00,38.5,38.0,29.53,WSW,252,0.0,0.0,98,0.02,OVC,OVC,0.11,WeatherDisplay:10.37,2013-02-20 04:49:00,
2013-02-19 23:55:00,38.4,37.9,29.53,SW,227,1.2,0.0,98,0.01,OVC,OVC,0.11,WeatherDisplay:10.37,2013-02-20 04:55:00,